createdAt,value
2022-08-22T00:02:47.158Z,24.28
2022-08-22T00:02:49.863Z,24.30
2022-08-22T00:03:09.862Z,23.48
2022-08-22T00:06:12.674Z,23.40
2022-08-22T00:09:06.459Z,23.42
2022-08-22T00:11:48.435Z,23.35
2022-08-22T00:14:31.817Z,23.29
2022-08-22T00:17:17.153Z,23.28
2022-08-22T00:19:58.485Z,23.21
2022-08-22T00:22:38.537Z,23.24
2022-08-22T00:25:27.603Z,23.23
2022-08-22T00:28:05.210Z,23.29
2022-08-22T00:30:49.308Z,23.29
2022-08-22T00:33:29.053Z,23.29
2022-08-22T00:36:24.176Z,23.32
2022-08-22T00:39:07.350Z,23.24
2022-08-22T00:41:50.669Z,23.24
2022-08-22T00:44:44.976Z,23.19
2022-08-22T00:47:47.231Z,23.14
2022-08-22T00:50:42.917Z,23.13
2022-08-22T00:53:44.177Z,23.11
2022-08-22T00:56:53.161Z,23.10
2022-08-22T00:59:42.576Z,23.05
2022-08-22T01:02:31.837Z,23.02
2022-08-22T01:05:44.507Z,23.05
2022-08-22T01:08:35.100Z,23.02
2022-08-22T01:11:26.323Z,22.97
2022-08-22T01:14:16.564Z,22.95
2022-08-22T01:17:09.458Z,22.93
2022-08-22T01:20:11.583Z,22.89
2022-08-22T01:23:11.237Z,22.87
2022-08-22T01:26:17.139Z,22.84
2022-08-22T01:29:33.327Z,22.86
2022-08-22T01:32:24.445Z,22.81
2022-08-22T01:35:16.260Z,22.82
2022-08-22T01:38:18.096Z,22.78
2022-08-22T01:41:18.094Z,22.80
2022-08-22T01:44:09.666Z,22.79
2022-08-22T01:46:52.594Z,22.82
2022-08-22T01:49:29.122Z,22.81
2022-08-22T01:52:10.119Z,22.82
2022-08-22T01:54:52.202Z,22.78
2022-08-22T01:57:26.253Z,22.78
2022-08-22T02:00:05.152Z,22.81
2022-08-22T02:02:57.777Z,22.77
2022-08-22T02:05:37.187Z,22.74
2022-08-22T02:08:23.158Z,22.75
2022-08-22T02:11:07.132Z,22.71
2022-08-22T02:13:55.536Z,22.79
2022-08-22T02:16:36.628Z,22.73
2022-08-22T02:19:29.525Z,22.65
2022-08-22T02:22:08.185Z,22.66
2022-08-22T02:24:52.221Z,22.67
2022-08-22T02:27:34.773Z,22.67
2022-08-22T02:30:11.347Z,22.64
2022-08-22T02:32:54.558Z,22.65
2022-08-22T02:35:32.232Z,22.61
2022-08-22T02:38:22.385Z,22.56
2022-08-22T02:41:08.424Z,22.58
2022-08-22T02:43:50.580Z,22.55
2022-08-22T02:46:31.171Z,22.54
2022-08-22T02:49:12.976Z,22.52
2022-08-22T02:51:52.960Z,22.49
2022-08-22T02:54:31.407Z,22.52
2022-08-22T02:57:14.279Z,22.50
2022-08-22T03:00:00.103Z,22.46
2022-08-22T03:02:38.948Z,22.44
2022-08-22T03:05:24.945Z,22.40
2022-08-22T03:08:03.362Z,22.40
2022-08-22T03:10:43.361Z,22.39
2022-08-22T03:13:26.726Z,22.30
2022-08-22T03:16:07.768Z,22.40
2022-08-22T03:18:49.303Z,22.30
2022-08-22T03:21:30.538Z,22.31
2022-08-22T03:24:12.798Z,22.30
2022-08-22T03:26:51.562Z,22.29
2022-08-22T03:29:30.564Z,22.30
2022-08-22T03:32:14.528Z,22.24
2022-08-22T03:34:58.518Z,22.24
2022-08-22T03:37:41.079Z,22.20
2022-08-22T03:40:31.528Z,22.18
2022-08-22T03:43:25.702Z,22.12
2022-08-22T03:46:38.211Z,22.10
2022-08-22T03:49:46.832Z,22.10
2022-08-22T03:52:57.952Z,22.08
2022-08-22T03:55:40.534Z,21.93
2022-08-22T03:58:38.289Z,21.91
2022-08-22T04:01:59.105Z,21.85
2022-08-22T04:05:09.730Z,21.82
2022-08-22T04:08:13.060Z,21.77
2022-08-22T04:11:21.523Z,21.78
2022-08-22T04:14:28.707Z,21.70
2022-08-22T04:17:23.251Z,21.77
2022-08-22T04:20:20.904Z,21.72
2022-08-22T04:23:27.589Z,21.69
2022-08-22T04:26:12.104Z,21.67
2022-08-22T04:28:51.111Z,21.67
2022-08-22T04:31:28.688Z,21.61
2022-08-22T04:34:07.283Z,21.60
2022-08-22T04:36:48.142Z,21.61
2022-08-22T04:39:29.036Z,21.59
2022-08-22T04:42:30.805Z,21.55
2022-08-22T04:45:07.052Z,21.50
2022-08-22T04:47:43.956Z,21.48
2022-08-22T04:50:26.226Z,21.46
2022-08-22T04:53:10.505Z,21.47
2022-08-22T04:55:52.811Z,21.51
2022-08-22T04:58:38.747Z,21.45
2022-08-22T05:01:16.633Z,21.50
2022-08-22T05:03:57.364Z,21.52
2022-08-22T05:06:35.229Z,21.42
2022-08-22T05:09:16.453Z,21.40
2022-08-22T05:11:53.333Z,21.35
2022-08-22T05:14:32.227Z,21.43
2022-08-22T05:17:08.487Z,21.29
2022-08-22T05:19:46.516Z,21.29
2022-08-22T05:22:24.214Z,21.25
2022-08-22T05:25:03.558Z,21.24
2022-08-22T05:27:42.033Z,21.22
2022-08-22T05:30:22.278Z,21.21
2022-08-22T05:33:04.622Z,21.19
2022-08-22T05:35:40.843Z,21.22
2022-08-22T05:38:16.960Z,21.10
2022-08-22T05:40:58.713Z,21.15
2022-08-22T05:43:37.142Z,21.14
2022-08-22T05:46:17.503Z,21.15
2022-08-22T05:48:56.489Z,21.14
2022-08-22T05:51:37.868Z,21.15
2022-08-22T05:54:15.812Z,21.15
2022-08-22T05:56:55.548Z,21.10
2022-08-22T05:59:32.168Z,21.15
2022-08-22T06:02:10.572Z,21.15
2022-08-22T06:04:50.093Z,21.14
2022-08-22T06:07:27.439Z,21.13
2022-08-22T06:10:09.687Z,21.20
2022-08-22T06:12:51.261Z,21.17
2022-08-22T06:15:30.528Z,21.16
2022-08-22T06:18:06.298Z,21.19
2022-08-22T06:20:43.994Z,21.19
2022-08-22T06:23:23.880Z,21.18
2022-08-22T06:26:00.697Z,21.20
2022-08-22T06:28:54.611Z,21.26
2022-08-22T06:31:31.999Z,21.21
2022-08-22T06:34:10.165Z,21.24
2022-08-22T06:36:48.732Z,21.25
2022-08-22T06:39:24.544Z,21.20
2022-08-22T06:42:03.357Z,21.30
2022-08-22T06:44:41.976Z,21.30
2022-08-22T06:47:19.052Z,21.33
2022-08-22T06:49:56.436Z,21.31
2022-08-22T06:52:33.922Z,21.35
2022-08-22T06:55:10.260Z,21.35
2022-08-22T06:57:47.470Z,21.41
2022-08-22T07:00:22.442Z,21.45
2022-08-22T07:02:58.737Z,21.48
2022-08-22T07:05:38.355Z,21.52
2022-08-22T07:08:14.799Z,21.51
2022-08-22T07:10:56.413Z,21.58
2022-08-22T07:13:29.268Z,21.66
2022-08-22T07:16:07.751Z,21.69
2022-08-22T07:18:50.010Z,21.77
2022-08-22T07:21:28.921Z,21.80
2022-08-22T07:24:02.808Z,21.92
2022-08-22T07:26:42.241Z,22.02
2022-08-22T07:29:27.764Z,22.12
2022-08-22T07:32:11.537Z,22.18
2022-08-22T07:34:58.041Z,22.25
2022-08-22T07:37:47.014Z,22.30
2022-08-22T07:40:27.092Z,22.44
2022-08-22T07:43:06.175Z,22.57
2022-08-22T07:45:44.422Z,22.67
2022-08-22T07:48:28.055Z,22.82
2022-08-22T07:51:05.239Z,22.96
2022-08-22T07:53:42.590Z,23.01
2022-08-22T07:56:21.641Z,23.20
2022-08-22T07:58:59.646Z,23.26
2022-08-22T08:01:33.327Z,23.36
2022-08-22T08:04:10.175Z,23.50
2022-08-22T08:06:43.025Z,23.61
2022-08-22T08:09:16.998Z,23.73
2022-08-22T08:11:53.451Z,23.74
2022-08-22T08:14:27.552Z,23.87
2022-08-22T08:17:03.964Z,23.98
2022-08-22T08:19:42.064Z,24.06
2022-08-22T08:22:18.607Z,24.18
2022-08-22T08:24:54.970Z,24.28
2022-08-22T08:27:52.583Z,24.48
2022-08-22T08:30:36.614Z,24.59
2022-08-22T08:33:24.803Z,24.66
2022-08-22T08:36:07.951Z,24.82
2022-08-22T08:38:48.135Z,24.98
2022-08-22T08:41:57.938Z,25.15
2022-08-22T08:44:49.803Z,25.31
2022-08-22T08:47:36.182Z,25.39
2022-08-22T08:50:29.083Z,25.52
2022-08-22T08:53:33.049Z,25.66
2022-08-22T08:56:16.606Z,25.82
2022-08-22T08:59:00.200Z,25.89
2022-08-22T09:01:53.400Z,25.96
2022-08-22T09:05:04.875Z,26.14
2022-08-22T09:07:56.913Z,26.31
2022-08-22T09:10:52.824Z,26.44
2022-08-22T09:13:42.814Z,26.54
2022-08-22T09:16:46.202Z,26.70
2022-08-22T09:19:49.651Z,26.80
2022-08-22T09:22:50.200Z,26.90
2022-08-22T09:25:31.996Z,26.99
2022-08-22T09:28:18.167Z,27.03
2022-08-22T09:31:16.925Z,27.15
2022-08-22T09:34:05.956Z,27.17
2022-08-22T09:36:52.958Z,27.39
2022-08-22T09:39:39.127Z,27.54
2022-08-22T09:42:18.548Z,27.72
2022-08-22T09:45:01.186Z,27.84
2022-08-22T09:47:40.018Z,27.99
2022-08-22T09:50:17.614Z,28.14
2022-08-22T09:53:04.829Z,28.24
2022-08-22T09:55:43.801Z,28.41
2022-08-22T09:58:25.779Z,28.62
2022-08-22T10:01:11.355Z,28.65
2022-08-22T10:04:28.917Z,28.81
2022-08-22T10:07:11.692Z,28.93
2022-08-22T10:09:57.112Z,29.06
2022-08-22T10:12:36.542Z,29.27
2022-08-22T10:15:20.252Z,29.31
2022-08-22T10:18:15.852Z,29.45
2022-08-22T10:21:00.345Z,29.56
2022-08-22T10:23:39.570Z,29.72
2022-08-22T10:26:29.185Z,29.77
2022-08-22T10:29:08.935Z,29.95
2022-08-22T10:31:58.865Z,30.06
2022-08-22T10:34:42.700Z,30.14
2022-08-22T10:37:24.106Z,30.33
2022-08-22T10:40:02.682Z,30.43
2022-08-22T10:42:41.774Z,30.61
2022-08-22T10:45:35.489Z,30.74
2022-08-22T10:48:39.728Z,30.83
2022-08-22T10:51:28.892Z,30.88
2022-08-22T10:54:19.934Z,31.15
2022-08-22T10:57:06.649Z,31.17
2022-08-22T10:59:46.291Z,31.28
2022-08-22T11:02:36.592Z,31.41
2022-08-22T11:05:39.475Z,31.54
2022-08-22T11:08:28.572Z,31.53
2022-08-22T11:11:21.540Z,31.62
2022-08-22T11:14:29.024Z,31.76
2022-08-22T11:17:23.636Z,32.00
2022-08-22T11:20:19.496Z,32.08
2022-08-22T11:23:12.888Z,32.17
2022-08-22T11:25:55.143Z,32.32
2022-08-22T11:28:41.254Z,32.38
2022-08-22T11:31:27.500Z,32.42
2022-08-22T11:34:12.079Z,32.48
2022-08-22T11:36:51.609Z,32.52
2022-08-22T11:39:34.983Z,32.67
2022-08-22T11:42:14.268Z,32.82
2022-08-22T11:44:53.795Z,32.80
2022-08-22T11:47:31.559Z,32.95
2022-08-22T11:50:13.835Z,33.05
2022-08-22T11:53:07.825Z,33.16
2022-08-22T11:55:46.549Z,33.24
2022-08-22T11:58:32.861Z,33.31
2022-08-22T12:01:17.043Z,33.40
2022-08-22T12:04:03.495Z,33.42
2022-08-22T12:06:56.428Z,33.58
2022-08-22T12:09:38.844Z,33.71
2022-08-22T12:12:38.464Z,33.79
2022-08-22T12:15:21.656Z,33.79
2022-08-22T12:18:31.892Z,33.97
2022-08-22T12:21:36.858Z,34.17
2022-08-22T12:24:35.653Z,34.20
2022-08-22T12:27:37.658Z,34.26
2022-08-22T12:30:19.964Z,34.46
2022-08-22T12:33:23.538Z,34.52
2022-08-22T12:36:19.359Z,34.75
2022-08-22T12:39:13.393Z,34.84
2022-08-22T12:42:06.984Z,34.91
2022-08-22T12:44:55.713Z,34.94
2022-08-22T12:47:42.191Z,35.10
2022-08-22T12:50:32.350Z,35.14
2022-08-22T12:53:25.724Z,35.34
2022-08-22T12:56:06.274Z,35.41
2022-08-22T12:59:09.143Z,35.43
2022-08-22T13:01:45.125Z,35.55
2022-08-22T13:04:32.427Z,35.64
2022-08-22T13:07:19.030Z,35.75
2022-08-22T13:10:01.738Z,35.78
2022-08-22T13:12:44.331Z,35.81
2022-08-22T13:15:26.634Z,35.94
2022-08-22T13:18:19.197Z,36.03
2022-08-22T13:20:59.236Z,36.04
2022-08-22T13:23:39.927Z,35.97
2022-08-22T13:26:34.030Z,36.13
2022-08-22T13:29:26.156Z,35.91
2022-08-22T13:32:02.094Z,36.03
2022-08-22T13:34:43.551Z,36.03
2022-08-22T13:37:24.789Z,36.11
2022-08-22T13:40:03.008Z,35.97
2022-08-22T13:42:47.875Z,36.07
2022-08-22T13:45:24.878Z,35.81
2022-08-22T13:48:03.630Z,35.89
2022-08-22T13:50:54.131Z,36.03
2022-08-22T13:53:39.217Z,36.09
2022-08-22T13:56:18.593Z,36.04
2022-08-22T13:58:55.823Z,35.87
2022-08-22T14:01:38.828Z,35.70
2022-08-22T14:04:32.292Z,35.66
2022-08-22T14:07:28.118Z,35.71
2022-08-22T14:10:14.937Z,35.77
2022-08-22T14:13:18.900Z,35.84
2022-08-22T14:16:00.064Z,35.84
2022-08-22T14:18:45.667Z,35.84
2022-08-22T14:21:36.958Z,35.86
2022-08-22T14:24:19.917Z,35.89
2022-08-22T14:26:58.391Z,35.86
2022-08-22T14:29:35.080Z,35.90
2022-08-22T14:32:35.385Z,35.86
2022-08-22T14:35:23.063Z,35.90
2022-08-22T14:38:17.988Z,35.89
2022-08-22T14:40:54.853Z,35.80
2022-08-22T14:43:49.280Z,35.66
2022-08-22T14:46:30.186Z,35.68
2022-08-22T14:49:28.873Z,35.73
2022-08-22T14:52:06.779Z,35.79
2022-08-22T14:54:42.668Z,35.94
2022-08-22T14:57:20.606Z,35.97
2022-08-22T14:59:55.295Z,35.97
2022-08-22T15:02:30.858Z,35.92
2022-08-22T15:05:15.541Z,35.98
2022-08-22T15:07:55.839Z,35.98
2022-08-22T15:10:33.373Z,35.97
2022-08-22T15:13:10.158Z,35.94
2022-08-22T15:15:53.484Z,35.96
2022-08-22T15:18:35.683Z,36.02
2022-08-22T15:21:11.419Z,36.06
2022-08-22T15:23:46.969Z,36.10
2022-08-22T15:26:25.703Z,36.10
2022-08-22T15:29:07.353Z,36.18
2022-08-22T15:31:43.599Z,36.13
2022-08-22T15:34:25.742Z,36.13
2022-08-22T15:37:29.505Z,36.08
2022-08-22T15:40:12.673Z,36.16
2022-08-22T15:42:48.573Z,36.19
2022-08-22T15:45:33.703Z,36.19
2022-08-22T15:48:13.773Z,36.12
2022-08-22T15:51:03.604Z,36.08
2022-08-22T15:54:02.673Z,36.03
2022-08-22T15:57:14.211Z,35.94
2022-08-22T15:59:58.452Z,35.91
2022-08-22T16:02:35.497Z,35.77
2022-08-22T16:05:26.316Z,35.78
2022-08-22T16:08:05.947Z,35.69
2022-08-22T16:10:42.568Z,35.67
2022-08-22T16:13:38.282Z,35.55
2022-08-22T16:16:34.077Z,35.45
2022-08-22T16:19:20.262Z,35.27
2022-08-22T16:22:10.629Z,35.20
2022-08-22T16:25:03.851Z,35.13
2022-08-22T16:27:38.178Z,35.09
2022-08-22T16:30:16.280Z,34.99
2022-08-22T16:32:57.243Z,34.89
2022-08-22T16:36:22.117Z,34.83
2022-08-22T16:38:58.380Z,34.62
2022-08-22T16:41:35.817Z,34.48
2022-08-22T16:44:34.395Z,34.42
2022-08-22T16:47:12.784Z,34.27
2022-08-22T16:50:00.131Z,34.08
2022-08-22T16:52:57.596Z,34.01
2022-08-22T16:55:47.574Z,33.86
2022-08-22T16:59:01.080Z,33.80
2022-08-22T17:01:56.785Z,33.59
2022-08-22T17:04:41.032Z,33.47
2022-08-22T17:07:26.550Z,33.35
2022-08-22T17:10:12.432Z,33.24
2022-08-22T17:13:16.369Z,33.18
2022-08-22T17:16:03.197Z,32.99
2022-08-22T17:18:49.383Z,32.92
2022-08-22T17:21:26.681Z,32.83
2022-08-22T17:24:06.466Z,32.78
2022-08-22T17:26:53.205Z,32.60
2022-08-22T17:29:40.740Z,32.54
2022-08-22T17:32:21.964Z,32.50
2022-08-22T17:35:05.169Z,32.37
2022-08-22T17:37:52.828Z,32.23
2022-08-22T17:40:39.024Z,32.20
2022-08-22T17:43:27.409Z,32.02
2022-08-22T17:46:20.543Z,31.88
2022-08-22T17:49:00.575Z,31.83
2022-08-22T17:51:41.339Z,31.76
2022-08-22T17:54:18.896Z,31.60
2022-08-22T17:57:03.221Z,31.57
2022-08-22T17:59:48.361Z,31.51
2022-08-22T18:02:28.049Z,31.42
2022-08-22T18:05:07.921Z,31.31
2022-08-22T18:07:56.137Z,31.24
2022-08-22T18:10:38.945Z,31.11
2022-08-22T18:13:13.170Z,31.07
2022-08-22T18:15:51.582Z,31.01
2022-08-22T18:18:31.716Z,30.97
2022-08-22T18:21:10.946Z,30.83
2022-08-22T18:23:46.276Z,30.70
2022-08-22T18:26:28.390Z,30.63
2022-08-22T18:29:09.820Z,30.49
2022-08-22T18:31:51.015Z,30.50
2022-08-22T18:34:34.174Z,30.42
2022-08-22T18:37:41.387Z,30.31
2022-08-22T18:40:26.520Z,30.28
2022-08-22T18:43:14.099Z,30.14
2022-08-22T18:46:03.514Z,30.06
2022-08-22T18:48:49.793Z,29.99
2022-08-22T18:51:38.271Z,29.97
2022-08-22T18:54:34.930Z,29.84
2022-08-22T18:57:30.404Z,29.77
2022-08-22T19:00:12.677Z,29.61
2022-08-22T19:03:08.762Z,29.57
2022-08-22T19:05:52.051Z,29.55
2022-08-22T19:08:53.420Z,29.51
2022-08-22T19:11:40.991Z,29.47
2022-08-22T19:14:28.896Z,29.35
2022-08-22T19:17:44.640Z,29.22
2022-08-22T19:20:51.623Z,29.13
2022-08-22T19:23:47.915Z,29.07
2022-08-22T19:26:30.435Z,28.97
2022-08-22T19:29:10.775Z,28.89
2022-08-22T19:31:50.458Z,28.84
2022-08-22T19:34:39.665Z,28.66
2022-08-22T19:37:33.201Z,28.64
2022-08-22T19:40:10.414Z,28.61
2022-08-22T19:42:46.791Z,28.57
2022-08-22T19:45:25.577Z,28.46
2022-08-22T19:48:02.209Z,28.36
2022-08-22T19:50:38.516Z,28.30
2022-08-22T19:53:28.293Z,28.26
2022-08-22T19:56:20.750Z,28.27
2022-08-22T19:59:07.227Z,28.16
2022-08-22T20:01:56.183Z,28.09
2022-08-22T20:04:44.074Z,28.00
2022-08-22T20:07:29.284Z,27.95
2022-08-22T20:10:17.952Z,27.94
2022-08-22T20:13:04.303Z,27.92
2022-08-22T20:16:02.585Z,27.87
2022-08-22T20:19:05.031Z,27.83
2022-08-22T20:21:46.048Z,27.79
2022-08-22T20:24:24.502Z,27.71
2022-08-22T20:27:15.654Z,27.65
2022-08-22T20:29:56.413Z,27.63
2022-08-22T20:32:30.904Z,27.59
2022-08-22T20:35:05.945Z,27.57
2022-08-22T20:40:55.096Z,27.58
2022-08-22T20:43:36.402Z,27.53
2022-08-22T20:46:24.349Z,27.43
2022-08-22T20:48:57.595Z,27.45
2022-08-22T20:51:33.499Z,27.44
2022-08-22T20:54:17.746Z,27.42
2022-08-22T20:56:53.952Z,27.36
2022-08-22T20:59:30.899Z,27.31
2022-08-22T21:02:15.610Z,27.29
2022-08-22T21:04:54.126Z,27.26
2022-08-22T21:07:30.411Z,27.24
2022-08-22T21:10:24.179Z,27.20
2022-08-22T21:13:24.383Z,27.10
2022-08-22T21:15:59.784Z,27.06
2022-08-22T21:18:36.883Z,26.98
2022-08-22T21:21:12.739Z,26.95
2022-08-22T21:23:56.373Z,26.94
2022-08-22T21:26:37.038Z,26.90
2022-08-22T21:29:22.255Z,26.84
2022-08-22T21:32:04.310Z,26.83
2022-08-22T21:34:44.524Z,26.67
2022-08-22T21:37:23.650Z,26.69
2022-08-22T21:40:01.950Z,26.61
2022-08-22T21:42:37.343Z,26.57
2022-08-22T21:45:14.085Z,26.55
2022-08-22T21:47:46.841Z,26.52
2022-08-22T21:50:37.857Z,26.50
2022-08-22T21:53:13.115Z,26.42
2022-08-22T21:55:47.973Z,26.37
2022-08-22T21:58:36.606Z,26.32
2022-08-22T22:01:31.665Z,26.25
2022-08-22T22:04:05.025Z,26.21
2022-08-22T22:06:39.063Z,26.16
2022-08-22T22:09:15.163Z,26.11
2022-08-22T22:11:48.122Z,26.12
2022-08-22T22:14:21.007Z,26.06
2022-08-22T22:16:53.703Z,26.02
2022-08-22T22:19:26.425Z,25.92
2022-08-22T22:22:00.453Z,25.89
2022-08-22T22:24:33.268Z,25.88
2022-08-22T22:27:06.657Z,25.84
2022-08-22T22:29:39.704Z,25.80
2022-08-22T22:32:12.445Z,25.76
2022-08-22T22:34:45.079Z,25.72
2022-08-22T22:37:19.617Z,25.68
2022-08-22T22:39:52.440Z,25.64
2022-08-22T22:42:25.137Z,25.62
2022-08-22T22:44:58.069Z,25.55
2022-08-22T22:47:31.696Z,25.52
2022-08-22T22:50:05.600Z,25.45
2022-08-22T22:52:40.873Z,25.43
2022-08-22T22:55:24.969Z,25.38
2022-08-22T22:58:01.028Z,25.34
2022-08-22T23:00:36.287Z,25.29
2022-08-22T23:03:09.785Z,25.28
2022-08-22T23:05:42.983Z,25.24
2022-08-22T23:08:17.083Z,25.20
2022-08-22T23:10:49.933Z,25.16
2022-08-22T23:13:22.726Z,25.16
2022-08-22T23:15:55.532Z,25.12
2022-08-22T23:18:30.799Z,25.07
2022-08-22T23:21:13.006Z,25.04
2022-08-22T23:23:48.073Z,24.97
2022-08-22T23:26:20.785Z,24.96
2022-08-22T23:28:53.566Z,24.93
2022-08-22T23:31:37.951Z,24.90
2022-08-22T23:34:13.954Z,24.87
2022-08-22T23:36:48.652Z,24.83
2022-08-22T23:39:24.466Z,24.80
2022-08-22T23:41:58.306Z,24.83
2022-08-22T23:44:33.050Z,24.77
2022-08-22T23:47:07.752Z,24.73
2022-08-22T23:49:41.900Z,24.73
2022-08-22T23:52:15.305Z,24.69
2022-08-22T23:54:54.293Z,24.65
2022-08-22T23:57:29.448Z,24.63
